createdAt,value
2022-10-19T00:13:17.001Z,90.5
2022-10-19T00:33:16.882Z,90.8
2022-10-19T00:53:16.903Z,90.5
2022-10-19T01:13:16.940Z,90.2
2022-10-19T01:33:16.854Z,90.0
2022-10-19T01:53:16.854Z,90.2
2022-10-19T02:13:16.874Z,90.5
2022-10-19T02:33:16.789Z,90.9
2022-10-19T02:53:16.814Z,90.9
2022-10-19T03:13:16.728Z,90.9
2022-10-19T03:33:16.754Z,90.8
2022-10-19T03:53:16.761Z,90.6
2022-10-19T04:13:16.714Z,90.4
2022-10-19T04:33:16.695Z,90.4
2022-10-19T04:53:16.777Z,90.3
2022-10-19T05:13:16.630Z,90.4
2022-10-19T05:33:16.655Z,90.5
2022-10-19T05:53:16.585Z,90.2
2022-10-19T06:13:16.594Z,90.3
2022-10-19T06:33:16.609Z,90.4
2022-10-19T06:53:16.566Z,90.5
2022-10-19T07:13:16.544Z,90.7
2022-10-19T07:33:16.607Z,90.3
2022-10-19T07:53:16.481Z,89.9
2022-10-19T08:13:16.529Z,89.3
2022-10-19T08:33:16.413Z,88.4
2022-10-19T08:53:16.441Z,87.6
2022-10-19T09:13:16.473Z,86.4
2022-10-19T09:33:16.419Z,85.5
2022-10-19T09:53:16.392Z,82.9
2022-10-19T10:13:16.415Z,81.3
2022-10-19T10:33:16.336Z,78.4
2022-10-19T10:53:16.350Z,77.4
2022-10-19T11:13:16.269Z,74.8
2022-10-19T11:33:16.294Z,74.4
2022-10-19T11:53:16.211Z,73.2
2022-10-19T12:13:16.242Z,75.1
2022-10-19T12:33:16.149Z,74.3
2022-10-19T12:53:16.197Z,74.4
2022-10-19T13:13:16.227Z,73.4
2022-10-19T13:33:16.119Z,73.7
2022-10-19T13:53:16.140Z,77.0
2022-10-19T14:33:16.065Z,72.9
2022-10-19T14:53:15.993Z,74.1
2022-10-19T15:13:16.012Z,79.0
2022-10-19T15:33:16.036Z,78.8
2022-10-19T15:53:15.963Z,77.0
2022-10-19T16:13:16.031Z,82.1
2022-10-19T16:33:15.904Z,82.7
2022-10-19T16:53:15.930Z,83.9
2022-10-19T17:13:15.841Z,82.4
2022-10-19T17:33:15.853Z,83.6
2022-10-19T17:53:15.905Z,85.1
2022-10-19T18:13:15.809Z,86.4
2022-10-19T18:33:15.820Z,87.1
2022-10-19T18:53:15.839Z,87.3
2022-10-19T19:13:15.757Z,87.7
2022-10-19T19:33:15.818Z,87.8
2022-10-19T19:53:15.790Z,88.4
2022-10-19T20:13:15.704Z,88.3
2022-10-19T20:33:15.757Z,88.3
2022-10-19T20:53:15.644Z,88.8
2022-10-19T21:13:15.714Z,89.2
2022-10-19T21:33:15.701Z,89.5
2022-10-19T21:53:15.603Z,88.7
2022-10-19T22:13:15.618Z,89.3
2022-10-19T22:33:15.636Z,88.7
2022-10-19T22:53:15.548Z,87.5
2022-10-19T23:13:15.565Z,88.7
2022-10-19T23:33:15.619Z,88.3
2022-10-19T23:53:15.501Z,89.7
